createdAt,value
2018-04-29T00:01:01.695Z,67.89
2018-04-29T00:03:31.690Z,67.84
2018-04-29T00:06:00.929Z,68.06
2018-04-29T00:08:30.168Z,68.17
2018-04-29T00:10:59.483Z,68.55
2018-04-29T00:13:28.858Z,68.92
2018-04-29T00:15:58.087Z,69.20
2018-04-29T00:18:27.328Z,69.52
2018-04-29T00:20:56.620Z,69.54
2018-04-29T00:23:25.845Z,69.11
2018-04-29T00:25:55.124Z,68.98
2018-04-29T00:28:24.343Z,69.02
2018-04-29T00:30:53.624Z,69.06
2018-04-29T00:33:22.927Z,69.04
2018-04-29T00:35:52.224Z,69.34
2018-04-29T00:38:22.164Z,69.08
2018-04-29T00:40:51.423Z,69.22
2018-04-29T00:43:21.541Z,69.47
2018-04-29T00:45:50.933Z,69.48
2018-04-29T00:48:20.152Z,69.45
2018-04-29T00:50:49.376Z,69.86
2018-04-29T00:53:18.643Z,69.20
2018-04-29T00:55:49.543Z,69.28
2018-04-29T00:58:18.785Z,69.23
2018-04-29T01:00:47.998Z,69.16
2018-04-29T01:03:17.211Z,69.12
2018-04-29T01:05:46.515Z,69.30
2018-04-29T01:08:15.704Z,69.56
2018-04-29T01:10:44.933Z,70.25
2018-04-29T01:13:14.922Z,70.86
2018-04-29T01:15:44.145Z,71.31
2018-04-29T01:18:13.538Z,71.41
2018-04-29T01:20:42.749Z,71.81
2018-04-29T01:23:12.800Z,71.14
2018-04-29T01:25:41.963Z,71.26
2018-04-29T01:28:12.044Z,71.22
2018-04-29T01:30:41.253Z,71.29
2018-04-29T01:33:11.997Z,71.46
2018-04-29T01:35:41.217Z,71.83
2018-04-29T01:38:11.206Z,72.03
2018-04-29T01:40:40.442Z,71.76
2018-04-29T01:43:09.683Z,71.59
2018-04-29T01:45:38.891Z,71.68
2018-04-29T01:48:08.108Z,71.94
2018-04-29T01:50:37.305Z,71.94
2018-04-29T01:53:06.714Z,72.07
2018-04-29T01:55:35.933Z,72.32
2018-04-29T01:58:05.148Z,72.56
2018-04-29T02:00:34.404Z,72.79
2018-04-29T02:03:04.401Z,72.85
2018-04-29T02:05:33.594Z,72.93
2018-04-29T02:08:02.845Z,72.94
2018-04-29T02:10:32.112Z,73.14
2018-04-29T02:13:01.315Z,73.30
2018-04-29T02:15:31.532Z,73.47
2018-04-29T02:18:00.746Z,73.53
2018-04-29T02:20:30.719Z,73.46
2018-04-29T02:22:59.917Z,73.77
2018-04-29T02:25:29.146Z,73.78
2018-04-29T02:27:58.372Z,73.99
2018-04-29T02:30:27.605Z,74.20
2018-04-29T02:32:56.811Z,74.04
2018-04-29T02:35:26.030Z,74.09
2018-04-29T02:37:55.278Z,74.26
2018-04-29T02:40:24.477Z,74.22
2018-04-29T02:42:53.683Z,74.41
2018-04-29T02:45:22.880Z,74.63
2018-04-29T02:47:52.100Z,74.70
2018-04-29T02:50:21.382Z,75.02
2018-04-29T02:52:50.594Z,75.17
2018-04-29T02:55:19.800Z,75.34
2018-04-29T02:57:49.097Z,75.14
2018-04-29T03:00:18.315Z,75.42
2018-04-29T03:02:47.562Z,75.37
2018-04-29T03:05:16.989Z,75.62
2018-04-29T03:07:46.199Z,76.02
2018-04-29T03:10:16.236Z,76.12
2018-04-29T03:12:46.193Z,76.08
2018-04-29T03:15:15.427Z,76.25
2018-04-29T03:17:44.629Z,76.35
2018-04-29T03:20:13.844Z,76.46
2018-04-29T03:22:43.833Z,76.16
2018-04-29T03:25:13.804Z,76.19
2018-04-29T03:27:43.128Z,76.39
2018-04-29T03:30:12.354Z,76.64
2018-04-29T03:32:41.561Z,76.90
2018-04-29T03:35:11.557Z,77.02
2018-04-29T03:37:40.781Z,77.29
2018-04-29T03:40:10.748Z,77.31
2018-04-29T03:42:39.957Z,77.02
2018-04-29T03:45:09.164Z,77.20
2018-04-29T03:47:38.385Z,77.16
2018-04-29T03:50:08.360Z,77.20
2018-04-29T03:52:37.616Z,77.02
2018-04-29T03:55:07.596Z,76.89
2018-04-29T04:11:15.727Z,77.90
2018-04-29T04:13:44.972Z,77.68
2018-04-29T04:16:14.216Z,77.45
2018-04-29T04:18:43.417Z,77.29
2018-04-29T04:21:13.394Z,76.99
2018-04-29T04:23:42.805Z,77.18
2018-04-29T04:26:12.923Z,77.48
2018-04-29T04:28:42.173Z,77.36
2018-04-29T04:31:11.377Z,77.26
2018-04-29T04:33:40.688Z,77.58
2018-04-29T04:36:09.949Z,77.17
2018-04-29T04:38:39.933Z,77.02
2018-04-29T04:41:09.144Z,76.88
2018-04-29T04:43:39.132Z,76.92
2018-04-29T04:46:08.357Z,76.70
2018-04-29T04:48:38.342Z,76.66
2018-04-29T04:51:07.592Z,76.74
2018-04-29T04:53:37.557Z,76.91
2018-04-29T04:56:06.900Z,76.70
2018-04-29T04:58:36.108Z,76.78
2018-04-29T05:01:05.709Z,76.82
2018-04-29T05:03:35.987Z,76.86
2018-04-29T05:06:05.255Z,76.67
2018-04-29T05:08:34.452Z,76.64
2018-04-29T05:11:03.660Z,76.93
2018-04-29T05:13:32.880Z,77.05
2018-04-29T05:16:02.090Z,77.39
2018-04-29T05:18:31.286Z,77.14
2018-04-29T05:21:00.487Z,77.17
2018-04-29T05:23:29.710Z,76.84
2018-04-29T05:25:59.706Z,76.63
2018-04-29T05:28:28.929Z,77.29
2018-04-29T05:30:58.134Z,76.77
2018-04-29T05:33:27.364Z,76.90
2018-04-29T05:35:56.642Z,76.68
2018-04-29T05:38:26.580Z,76.41
2018-04-29T05:40:55.781Z,76.25
2018-04-29T05:43:25.016Z,76.07
2018-04-29T05:45:54.995Z,75.08
2018-04-29T05:48:24.256Z,74.42
2018-04-29T05:50:53.668Z,74.58
2018-04-29T05:53:22.889Z,73.13
2018-04-29T05:55:52.103Z,73.12
2018-04-29T05:58:21.584Z,72.91
2018-04-29T06:00:50.762Z,72.59
2018-04-29T06:03:19.991Z,73.19
2018-04-29T06:05:49.194Z,72.41
2018-04-29T06:08:18.442Z,72.50
2018-04-29T06:10:47.893Z,72.23
2018-04-29T06:13:17.140Z,71.84
2018-04-29T06:15:47.214Z,71.26
2018-04-29T06:18:16.432Z,70.82
2018-04-29T06:20:46.408Z,70.95
2018-04-29T06:23:15.720Z,71.03
2018-04-29T06:25:44.969Z,71.04
2018-04-29T06:28:14.181Z,70.21
2018-04-29T06:30:43.430Z,70.32
2018-04-29T06:33:12.701Z,70.20
2018-04-29T06:35:41.954Z,70.08
2018-04-29T06:38:11.942Z,68.86
2018-04-29T06:40:41.198Z,69.68
2018-04-29T06:43:11.131Z,69.46
2018-04-29T06:45:40.392Z,70.24
2018-04-29T06:48:10.368Z,70.66
2018-04-29T06:50:39.728Z,70.03
2018-04-29T06:53:08.966Z,71.18
2018-04-29T06:55:38.227Z,70.39
2018-04-29T06:58:07.615Z,69.77
2018-04-29T07:00:36.841Z,69.48
2018-04-29T07:03:06.050Z,69.30
2018-04-29T07:05:35.462Z,70.00
2018-04-29T07:08:05.568Z,70.56
2018-04-29T07:10:34.754Z,70.53
2018-04-29T07:13:03.957Z,71.24
2018-04-29T07:15:33.171Z,71.42
2018-04-29T07:18:02.400Z,71.19
2018-04-29T07:20:32.460Z,69.77
2018-04-29T07:23:01.675Z,68.57
2018-04-29T07:25:31.271Z,65.73
2018-04-29T07:28:00.494Z,65.71
2018-04-29T07:30:30.465Z,65.42
2018-04-29T07:32:59.861Z,66.33
2018-04-29T07:35:29.097Z,66.78
2018-04-29T07:37:58.333Z,67.10
2018-04-29T07:40:28.355Z,65.96
2018-04-29T07:42:58.440Z,66.50
2018-04-29T07:45:29.411Z,67.80
2018-04-29T07:47:59.401Z,68.80
2018-04-29T07:50:29.365Z,67.29
2018-04-29T07:52:58.664Z,66.93
2018-04-29T07:55:27.898Z,67.84
2018-04-29T07:57:57.133Z,65.47
2018-04-29T08:00:27.162Z,70.81
2018-04-29T08:02:56.457Z,70.18
2018-04-29T08:05:26.467Z,69.38
2018-04-29T08:07:55.717Z,69.84
2018-04-29T08:10:24.933Z,71.29
2018-04-29T08:12:54.169Z,72.47
2018-04-29T08:15:23.431Z,73.51
2018-04-29T08:17:52.604Z,74.33
2018-04-29T08:20:21.849Z,73.16
2018-04-29T08:22:51.041Z,72.89
2018-04-29T08:25:20.382Z,72.80
2018-04-29T08:27:49.591Z,74.16
2018-04-29T08:30:18.794Z,73.32
2018-04-29T08:32:48.067Z,73.14
2018-04-29T08:35:17.361Z,73.65
2018-04-29T08:37:47.436Z,73.91
2018-04-29T08:40:16.653Z,72.75
2018-04-29T08:42:47.279Z,68.92
2018-04-29T08:45:16.574Z,68.17
2018-04-29T08:47:45.773Z,66.26
2018-04-29T08:50:16.422Z,66.08
2018-04-29T08:52:46.229Z,67.34
2018-04-29T08:55:16.410Z,64.70
2018-04-29T08:57:47.106Z,65.75
2018-04-29T09:00:20.871Z,64.64
2018-04-29T09:02:52.772Z,64.98
2018-04-29T09:05:23.842Z,65.95
2018-04-29T09:07:53.633Z,64.92
2018-04-29T09:10:22.920Z,65.12
2018-04-29T09:12:52.125Z,64.92
2018-04-29T09:15:21.340Z,65.32
2018-04-29T09:17:50.584Z,66.34
2018-04-29T09:20:19.778Z,64.96
2018-04-29T09:22:49.757Z,65.26
2018-04-29T09:25:19.106Z,64.54
2018-04-29T09:27:48.350Z,64.92
2018-04-29T09:30:18.383Z,64.26
2018-04-29T09:32:47.615Z,64.24
2018-04-29T09:35:17.629Z,63.10
2018-04-29T09:37:47.654Z,62.92
2018-04-29T09:40:17.652Z,62.94
2018-04-29T09:42:46.883Z,60.31
2018-04-29T09:45:18.058Z,59.64
2018-04-29T09:47:47.792Z,60.30
2018-04-29T09:50:17.052Z,61.22
2018-04-29T09:52:46.281Z,62.04
2018-04-29T09:55:15.574Z,59.60
2018-04-29T09:57:45.693Z,59.22
2018-04-29T10:00:14.940Z,58.62
2018-04-29T10:02:48.024Z,59.59
2018-04-29T10:05:17.249Z,59.17
2018-04-29T10:07:46.456Z,59.49
2018-04-29T10:10:15.709Z,59.67
2018-04-29T10:12:45.734Z,59.93
2018-04-29T10:15:14.953Z,61.01
2018-04-29T10:17:44.167Z,62.00
2018-04-29T10:20:13.441Z,62.26
2018-04-29T10:22:42.641Z,62.91
2018-04-29T10:25:11.927Z,62.98
2018-04-29T10:27:41.153Z,63.15
2018-04-29T10:30:10.401Z,63.67
2018-04-29T10:32:39.617Z,63.98
2018-04-29T10:35:08.842Z,64.35
2018-04-29T10:37:38.052Z,63.57
2018-04-29T10:40:07.288Z,63.22
2018-04-29T10:42:36.517Z,61.81
2018-04-29T10:45:05.729Z,61.68
2018-04-29T10:47:34.953Z,61.28
2018-04-29T10:50:04.171Z,61.56
2018-04-29T10:52:34.233Z,60.75
2018-04-29T10:55:03.447Z,60.53
2018-04-29T10:57:32.676Z,60.10
2018-04-29T11:00:01.922Z,61.07
2018-04-29T11:02:31.149Z,60.85
2018-04-29T11:05:00.381Z,59.85
2018-04-29T11:07:30.502Z,60.10
2018-04-29T11:09:59.758Z,59.20
2018-04-29T11:12:29.024Z,59.37
2018-04-29T11:14:59.208Z,59.58
2018-04-29T11:17:28.457Z,59.38
2018-04-29T11:19:57.665Z,60.27
2018-04-29T11:22:26.996Z,60.73
2018-04-29T11:24:56.105Z,60.09
2018-04-29T11:27:25.361Z,59.15
2018-04-29T11:29:54.559Z,59.48
2018-04-29T11:32:23.874Z,58.69
2018-04-29T11:34:53.965Z,59.05
2018-04-29T11:37:24.093Z,59.55
2018-04-29T11:39:53.367Z,59.35
2018-04-29T11:42:23.355Z,58.99
2018-04-29T11:44:52.610Z,58.05
2018-04-29T11:47:21.851Z,57.25
2018-04-29T11:49:51.869Z,58.17
2018-04-29T11:52:21.862Z,57.44
2018-04-29T11:54:51.234Z,57.64
2018-04-29T11:57:20.545Z,57.44
2018-04-29T11:59:49.768Z,57.41
2018-04-29T12:02:19.059Z,56.68
2018-04-29T12:04:48.329Z,57.31
2018-04-29T12:07:17.702Z,57.45
2018-04-29T12:09:47.727Z,56.99
2018-04-29T12:12:18.555Z,56.56
2018-04-29T12:14:48.564Z,56.78
2018-04-29T12:17:18.540Z,57.09
2018-04-29T12:19:47.782Z,56.62
2018-04-29T12:22:17.001Z,56.33
2018-04-29T12:24:46.314Z,56.41
2018-04-29T12:27:15.541Z,56.51
2018-04-29T12:29:44.750Z,56.01
2018-04-29T12:32:14.009Z,54.58
2018-04-29T12:34:43.291Z,55.58
2018-04-29T12:37:13.691Z,57.02
2018-04-29T12:39:43.673Z,58.33
2018-04-29T12:42:12.869Z,59.36
2018-04-29T12:44:42.072Z,58.21
2018-04-29T12:47:11.245Z,59.71
2018-04-29T12:49:40.454Z,59.64
2018-04-29T12:52:09.713Z,59.04
2018-04-29T12:54:38.908Z,59.73
2018-04-29T12:57:08.878Z,60.41
2018-04-29T12:59:38.098Z,59.66
2018-04-29T13:02:07.352Z,60.63
2018-04-29T13:04:36.593Z,61.10
2018-04-29T13:07:05.849Z,61.36
2018-04-29T13:09:35.037Z,62.11
2018-04-29T13:12:04.264Z,61.57
2018-04-29T13:14:33.461Z,61.88
2018-04-29T13:17:02.704Z,61.32
2018-04-29T13:19:31.879Z,61.43
2018-04-29T13:22:01.105Z,61.16
2018-04-29T13:24:31.079Z,61.48
2018-04-29T13:27:00.322Z,58.58
2018-04-29T13:29:29.712Z,55.72
2018-04-29T13:31:59.684Z,53.54
2018-04-29T13:34:28.917Z,53.59
2018-04-29T13:36:58.160Z,53.46
2018-04-29T13:39:27.394Z,53.66
2018-04-29T13:41:56.642Z,53.70
2018-04-29T13:44:25.844Z,54.47
2018-04-29T13:46:55.024Z,54.85
2018-04-29T13:49:24.401Z,55.21
2018-04-29T13:51:53.902Z,53.79
2018-04-29T13:54:23.960Z,55.17
2018-04-29T13:56:53.161Z,54.57
2018-04-29T13:59:22.410Z,55.01
2018-04-29T14:01:53.232Z,53.77
2018-04-29T14:04:23.169Z,54.71
2018-04-29T14:06:53.841Z,56.15
2018-04-29T14:09:23.104Z,56.15
2018-04-29T14:11:53.079Z,56.51
2018-04-29T14:14:22.402Z,57.65
2018-04-29T14:16:51.612Z,57.49
2018-04-29T14:19:21.593Z,57.21
2018-04-29T14:21:50.941Z,57.51
2018-04-29T14:24:20.168Z,57.88
2018-04-29T14:26:49.429Z,57.88
2018-04-29T14:29:19.448Z,58.32
2018-04-29T14:31:48.709Z,58.69
2018-04-29T14:34:18.228Z,58.44
2018-04-29T14:36:47.494Z,59.51
2018-04-29T14:39:16.709Z,59.69
2018-04-29T14:41:46.157Z,59.88
2018-04-29T14:44:15.399Z,59.58
2018-04-29T14:46:44.651Z,59.55
2018-04-29T14:49:14.608Z,59.71
2018-04-29T14:51:43.854Z,58.83
2018-04-29T14:54:13.953Z,59.03
2018-04-29T14:56:43.209Z,59.45
2018-04-29T14:59:12.461Z,59.33
2018-04-29T15:01:41.722Z,59.34
2018-04-29T15:04:10.946Z,58.94
2018-04-29T15:06:40.174Z,59.08
2018-04-29T15:09:10.321Z,59.55
2018-04-29T15:11:39.546Z,59.50
2018-04-29T15:14:08.795Z,59.09
2018-04-29T15:16:37.988Z,59.24
2018-04-29T15:19:07.219Z,59.13
2018-04-29T15:21:36.430Z,59.32
2018-04-29T15:24:07.335Z,59.01
2018-04-29T15:26:36.573Z,58.93
2018-04-29T15:29:05.890Z,59.26
2018-04-29T15:31:35.133Z,59.08
2018-04-29T15:34:04.358Z,60.41
2018-04-29T15:36:33.653Z,61.33
2018-04-29T15:39:02.902Z,62.43
2018-04-29T15:41:32.905Z,63.12
2018-04-29T15:44:02.131Z,63.14
2018-04-29T15:46:31.382Z,63.60
2018-04-29T15:49:00.598Z,63.94
2018-04-29T15:51:29.935Z,64.36
2018-04-29T15:54:00.110Z,64.59
2018-04-29T15:56:29.380Z,64.78
2018-04-29T15:58:58.601Z,64.65
2018-04-29T16:01:27.842Z,64.49
2018-04-29T16:03:57.874Z,65.06
2018-04-29T16:06:27.102Z,64.90
2018-04-29T16:08:56.321Z,64.04
2018-04-29T16:11:27.058Z,63.47
2018-04-29T16:13:56.289Z,64.72
2018-04-29T16:16:25.550Z,62.86
2018-04-29T16:18:54.800Z,63.20
2018-04-29T16:21:24.088Z,63.64
2018-04-29T16:23:54.183Z,64.17
2018-04-29T16:26:23.420Z,62.80
2018-04-29T16:28:52.645Z,62.26
2018-04-29T16:31:21.861Z,61.52
2018-04-29T16:33:51.094Z,61.50
2018-04-29T16:36:21.050Z,61.53
2018-04-29T16:38:50.297Z,63.10
2018-04-29T16:41:19.545Z,64.35
2018-04-29T16:43:48.808Z,64.57
2018-04-29T16:46:18.014Z,64.77
2018-04-29T16:48:47.240Z,65.19
2018-04-29T16:51:16.462Z,64.62
2018-04-29T16:53:46.467Z,65.94
2018-04-29T16:56:16.473Z,66.39
2018-04-29T16:58:46.535Z,66.94
2018-04-29T17:01:15.832Z,67.17
2018-04-29T17:03:45.050Z,66.57
2018-04-29T17:06:14.352Z,66.66
2018-04-29T17:08:43.603Z,67.13
2018-04-29T17:11:12.807Z,67.10
2018-04-29T17:13:42.025Z,67.74
2018-04-29T17:16:12.053Z,67.83
2018-04-29T17:18:42.017Z,68.26
2018-04-29T17:21:11.219Z,68.38
2018-04-29T17:23:42.006Z,68.04
2018-04-29T17:26:11.246Z,68.13
2018-04-29T17:28:40.491Z,68.04
2018-04-29T17:31:09.733Z,68.29
2018-04-29T17:33:38.968Z,68.57
2018-04-29T17:36:08.967Z,68.88
2018-04-29T17:38:38.188Z,69.07
2018-04-29T17:41:07.593Z,69.11
2018-04-29T17:43:37.583Z,69.16
2018-04-29T17:46:06.835Z,69.30
2018-04-29T17:48:36.069Z,69.66
2018-04-29T17:51:05.332Z,69.98
2018-04-29T17:53:34.555Z,70.36
2018-04-29T17:56:04.110Z,70.47
2018-04-29T17:58:33.979Z,70.76
2018-04-29T18:01:03.221Z,71.04
2018-04-29T18:03:33.213Z,71.37
2018-04-29T18:06:02.465Z,71.71
2018-04-29T18:08:31.683Z,71.86
2018-04-29T18:11:00.946Z,71.87
2018-04-29T18:13:30.198Z,72.04
2018-04-29T18:15:59.512Z,72.22
2018-04-29T18:18:28.739Z,72.59
2018-04-29T18:20:58.136Z,72.95
2018-04-29T18:23:27.362Z,73.40
2018-04-29T18:25:56.635Z,73.61
2018-04-29T18:28:26.290Z,74.21
2018-04-29T18:30:55.749Z,74.26
2018-04-29T18:33:24.977Z,74.69
2018-04-29T18:35:54.232Z,74.90
2018-04-29T18:38:24.237Z,75.36
2018-04-29T18:40:54.238Z,75.57
2018-04-29T18:43:24.986Z,75.64
2018-04-29T18:45:54.249Z,75.57
2018-04-29T18:48:23.466Z,75.32
2018-04-29T18:50:52.843Z,75.35
2018-04-29T18:53:22.715Z,75.31
2018-04-29T18:55:52.348Z,75.43
2018-04-29T18:58:21.609Z,75.39
2018-04-29T19:00:50.908Z,75.23
2018-04-29T19:03:21.312Z,75.16
2018-04-29T19:06:06.146Z,75.19
2018-04-29T19:08:35.686Z,75.05
2018-04-29T19:11:05.771Z,75.20
2018-04-29T19:13:35.143Z,75.17
2018-04-29T19:16:04.471Z,75.15
2018-04-29T19:18:33.714Z,75.02
2018-04-29T19:21:03.679Z,75.08
2018-04-29T19:23:33.040Z,75.28
2018-04-29T19:26:02.380Z,74.97
2018-04-29T19:28:31.946Z,74.92
2018-04-29T19:31:01.255Z,74.70
2018-04-29T19:33:31.323Z,74.65
2018-04-29T19:36:00.664Z,74.64
2018-04-29T19:38:30.793Z,74.57
2018-04-29T19:41:00.012Z,74.37
2018-04-29T19:43:29.185Z,74.13
2018-04-29T19:45:59.220Z,74.32
2018-04-29T19:48:28.500Z,74.40
2018-04-29T19:50:58.462Z,74.57
2018-04-29T19:53:27.709Z,74.54
2018-04-29T19:55:57.697Z,74.67
2018-04-29T19:58:26.904Z,75.19
2018-04-29T20:00:56.936Z,75.50
2018-04-29T20:03:27.576Z,75.73
2018-04-29T20:05:57.564Z,75.98
2018-04-29T20:08:26.782Z,76.39
2018-04-29T20:10:56.788Z,76.75
2018-04-29T20:13:27.497Z,76.90
2018-04-29T20:15:56.732Z,77.00
2018-04-29T20:18:26.746Z,76.92
2018-04-29T20:20:55.967Z,76.91
2018-04-29T20:23:25.551Z,76.72
2018-04-29T20:25:55.691Z,76.50
2018-04-29T20:28:24.930Z,76.24
2018-04-29T20:30:55.658Z,76.09
2018-04-29T20:33:25.689Z,76.17
2018-04-29T20:35:54.951Z,76.36
2018-04-29T20:38:24.172Z,76.51
2018-04-29T20:40:53.412Z,76.59
2018-04-29T20:43:23.425Z,76.58
2018-04-29T20:45:52.638Z,76.67
2018-04-29T20:48:21.866Z,77.03
2018-04-29T20:50:51.109Z,77.51
2018-04-29T20:53:21.102Z,77.95
2018-04-29T20:55:50.320Z,78.23
2018-04-29T20:58:20.315Z,78.34
2018-04-29T21:00:49.516Z,78.59
2018-04-29T21:03:18.771Z,78.68
2018-04-29T21:05:48.015Z,78.83
2018-04-29T21:08:17.311Z,79.08
2018-04-29T21:10:46.526Z,79.15
2018-04-29T21:13:16.638Z,79.24
2018-04-29T21:15:45.896Z,79.58
2018-04-29T21:18:15.127Z,79.61
2018-04-29T21:20:44.383Z,79.61
2018-04-29T21:23:13.678Z,79.65
2018-04-29T21:25:42.886Z,79.79
2018-04-29T21:28:12.944Z,79.98
2018-04-29T21:30:42.125Z,80.18
2018-04-29T21:33:11.362Z,80.57
2018-04-29T21:35:41.441Z,80.78
2018-04-29T21:38:10.748Z,80.75
2018-04-29T21:40:40.014Z,80.81
2018-04-29T21:43:09.265Z,81.22
2018-04-29T21:45:39.229Z,81.48
2018-04-29T21:48:08.563Z,81.81
2018-04-29T21:50:37.772Z,82.23
2018-04-29T21:53:07.010Z,82.57
2018-04-29T21:55:36.233Z,82.82
2018-04-29T21:58:05.451Z,82.95
2018-04-29T22:00:34.710Z,82.99
2018-04-29T22:03:03.905Z,83.04
2018-04-29T22:05:33.154Z,83.04
2018-04-29T22:08:02.525Z,82.91
2018-04-29T22:10:31.757Z,82.72
2018-04-29T22:13:04.768Z,82.57
2018-04-29T22:15:33.994Z,82.61
2018-04-29T22:18:03.233Z,82.72
2018-04-29T22:20:32.474Z,82.57
2018-04-29T22:23:01.710Z,82.57
2018-04-29T22:25:30.953Z,82.59
2018-04-29T22:28:00.176Z,82.86
2018-04-29T22:30:29.395Z,83.13
2018-04-29T22:32:58.650Z,83.22
2018-04-29T22:35:28.801Z,83.28
2018-04-29T22:37:58.041Z,83.25
2018-04-29T22:40:27.268Z,83.41
2018-04-29T22:42:57.259Z,83.12
2018-04-29T22:45:27.266Z,83.01
2018-04-29T22:47:56.674Z,82.99
2018-04-29T22:50:25.878Z,82.92
2018-04-29T22:52:55.103Z,82.60
2018-04-29T22:55:24.311Z,82.46
2018-04-29T22:57:53.574Z,82.48
2018-04-29T23:00:22.776Z,82.51
2018-04-29T23:02:52.003Z,82.43
2018-04-29T23:05:21.217Z,82.41
2018-04-29T23:07:50.500Z,82.38
2018-04-29T23:10:20.469Z,82.13
2018-04-29T23:12:49.718Z,81.94
2018-04-29T23:15:18.971Z,81.46
2018-04-29T23:17:48.292Z,81.29
2018-04-29T23:20:17.510Z,81.27
2018-04-29T23:22:46.909Z,81.13
2018-04-29T23:25:16.162Z,81.06
2018-04-29T23:27:45.421Z,80.94
2018-04-29T23:30:14.648Z,80.74
2018-04-29T23:32:43.862Z,80.44
2018-04-29T23:35:13.114Z,80.32
2018-04-29T23:37:42.333Z,79.82
2018-04-29T23:40:11.579Z,79.56
2018-04-29T23:42:41.557Z,79.25
2018-04-29T23:45:10.817Z,79.06
2018-04-29T23:47:40.107Z,79.57
2018-04-29T23:50:09.273Z,80.13
2018-04-29T23:52:38.476Z,79.92
2018-04-29T23:55:08.516Z,79.29
2018-04-29T23:57:38.017Z,78.97
